createdAt,value
2018-02-09T00:00:34.583Z,-3.56
2018-02-09T00:01:34.827Z,-3.67
2018-02-09T00:02:34.809Z,-3.64
2018-02-09T00:03:34.784Z,-3.64
2018-02-09T00:04:34.767Z,-3.64
2018-02-09T00:05:34.486Z,-3.67
2018-02-09T00:06:34.725Z,-3.69
2018-02-09T00:07:34.706Z,-3.71
2018-02-09T00:08:34.432Z,-3.66
2018-02-09T00:09:34.407Z,-3.66
2018-02-09T00:10:34.138Z,-3.63
2018-02-09T00:11:34.385Z,-3.66
2018-02-09T00:12:34.607Z,-3.67
2018-02-09T00:13:34.588Z,-3.67
2018-02-09T00:14:34.626Z,-3.75
2018-02-09T00:15:34.295Z,-3.64
2018-02-09T00:16:34.274Z,-3.69
2018-02-09T00:17:34.521Z,-3.75
2018-02-09T00:18:34.499Z,-3.72
2018-02-09T00:19:34.224Z,-3.72
2018-02-09T00:20:34.196Z,-3.75
2018-02-09T00:21:34.436Z,-3.76
2018-02-09T00:22:34.410Z,-3.72
2018-02-09T00:23:34.397Z,-3.78
2018-02-09T00:24:34.381Z,-3.76
2018-02-09T00:25:34.101Z,-3.75
2018-02-09T00:26:34.351Z,-3.75
2018-02-09T00:27:34.600Z,-3.69
2018-02-09T00:28:33.790Z,-3.76
2018-02-09T00:29:34.280Z,-3.67
2018-02-09T00:30:34.263Z,-3.71
2018-02-09T00:31:33.991Z,-3.76
2018-02-09T00:32:34.223Z,-3.67
2018-02-09T00:33:34.201Z,-3.76
2018-02-09T00:34:33.932Z,-3.76
2018-02-09T00:35:33.910Z,-3.78
2018-02-09T00:36:33.887Z,-3.75
2018-02-09T00:37:33.873Z,-3.76
2018-02-09T00:38:33.854Z,-3.72
2018-02-09T00:39:33.868Z,-3.78
2018-02-09T00:40:33.815Z,-3.69
2018-02-09T00:41:33.796Z,-3.76
2018-02-09T00:42:34.034Z,-3.72
2018-02-09T00:43:34.014Z,-3.76
2018-02-09T00:44:33.741Z,-3.88
2018-02-09T00:45:33.727Z,-3.83
2018-02-09T00:46:33.949Z,-3.85
2018-02-09T00:47:33.936Z,-3.85
2018-02-09T00:48:33.660Z,-3.85
2018-02-09T00:49:33.894Z,-3.85
2018-02-09T00:50:33.879Z,-3.82
2018-02-09T00:51:33.851Z,-3.83
2018-02-09T00:52:33.846Z,-3.86
2018-02-09T00:53:33.818Z,-3.82
2018-02-09T00:54:33.800Z,-3.86
2018-02-09T00:55:33.774Z,-3.9
2018-02-09T00:56:33.251Z,-3.88
2018-02-09T00:57:33.735Z,-3.9
2018-02-09T00:58:34.015Z,-3.85
2018-02-09T00:59:33.708Z,-3.82
2018-02-09T01:00:33.674Z,-3.86
2018-02-09T01:01:33.660Z,-3.88
2018-02-09T01:02:33.640Z,-3.78
2018-02-09T01:03:33.624Z,-3.9
2018-02-09T01:04:33.604Z,-3.91
2018-02-09T01:05:33.599Z,-3.94
2018-02-09T01:06:33.312Z,-3.85
2018-02-09T01:07:33.564Z,-3.97
2018-02-09T01:08:33.278Z,-3.88
2018-02-09T01:09:33.522Z,-3.9
2018-02-09T01:10:33.495Z,-3.94
2018-02-09T01:11:33.214Z,-3.88
2018-02-09T01:12:33.444Z,-3.94
2018-02-09T01:13:33.430Z,-3.94
2018-02-09T01:14:33.408Z,-3.93
2018-02-09T01:15:33.395Z,-3.93
2018-02-09T01:16:33.387Z,-3.96
2018-02-09T01:17:33.101Z,-3.93
2018-02-09T01:18:33.329Z,-3.96
2018-02-09T01:19:33.382Z,-4
2018-02-09T01:20:33.295Z,-4.01
2018-02-09T01:21:33.278Z,-4.03
2018-02-09T01:22:33.255Z,-3.97
2018-02-09T01:23:33.230Z,-4.03
2018-02-09T01:24:32.967Z,-4.03
2018-02-09T01:25:32.943Z,-4.06
2018-02-09T01:26:33.179Z,-4.03
2018-02-09T01:27:33.155Z,-4.12
2018-02-09T01:28:33.193Z,-4.1
2018-02-09T01:29:33.425Z,-4.01
2018-02-09T01:30:33.099Z,-4.15
2018-02-09T01:31:33.080Z,-4.14
2018-02-09T01:32:33.064Z,-4.14
2018-02-09T01:33:33.038Z,-4.12
2018-02-09T01:34:33.026Z,-4.15
2018-02-09T01:35:32.756Z,-4.14
2018-02-09T01:36:32.729Z,-4.21
2018-02-09T01:37:32.965Z,-4.12
2018-02-09T01:38:32.691Z,-4.15
2018-02-09T01:39:32.925Z,-4.15
2018-02-09T01:40:32.903Z,-4.21
2018-02-09T01:41:32.883Z,-4.22
2018-02-09T01:42:32.868Z,-4.21
2018-02-09T01:43:32.848Z,-4.14
2018-02-09T01:44:32.839Z,-4.12
2018-02-09T01:45:32.806Z,-4.2
2018-02-09T01:46:32.790Z,-4.2
2018-02-09T01:47:32.772Z,-4.17
2018-02-09T01:48:32.784Z,-4.17
2018-02-09T01:49:32.480Z,-4.15
2018-02-09T01:50:32.713Z,-4.18
2018-02-09T01:51:32.692Z,-4.1
2018-02-09T01:52:32.672Z,-4.18
2018-02-09T01:53:32.401Z,-4.2
2018-02-09T01:54:32.634Z,-4.17
2018-02-09T01:55:32.364Z,-4.22
2018-02-09T01:56:32.590Z,-4.24
2018-02-09T01:57:32.575Z,-4.17
2018-02-09T01:58:32.301Z,-4.12
2018-02-09T01:59:32.533Z,-4.15
2018-02-09T02:00:32.259Z,-4.17
2018-02-09T02:01:31.988Z,-4.15
2018-02-09T02:02:32.475Z,-4.25
2018-02-09T02:03:32.454Z,-4.2
2018-02-09T02:04:32.439Z,-4.2
2018-02-09T02:05:32.419Z,-4.2
2018-02-09T02:06:32.141Z,-4.21
2018-02-09T02:07:32.383Z,-4.2
2018-02-09T02:08:32.365Z,-4.2
2018-02-09T02:09:32.342Z,-4.25
2018-02-09T02:10:32.317Z,-4.12
2018-02-09T02:11:32.297Z,-4.2
2018-02-09T02:12:32.276Z,-4.17
2018-02-09T02:13:32.255Z,-4.22
2018-02-09T02:14:32.244Z,-4.22
2018-02-09T02:15:32.228Z,-4.18
2018-02-09T02:16:31.949Z,-4.14
2018-02-09T02:17:32.181Z,-4.21
2018-02-09T02:18:32.173Z,-4.22
2018-02-09T02:19:32.146Z,-4.24
2018-02-09T02:20:31.871Z,-4.25
2018-02-09T02:21:32.108Z,-4.2
2018-02-09T02:22:31.830Z,-4.2
2018-02-09T02:23:32.062Z,-4.2
2018-02-09T02:24:32.047Z,-4.2
2018-02-09T02:25:31.770Z,-4.2
2018-02-09T02:26:32.014Z,-4.22
2018-02-09T02:27:31.986Z,-4.22
2018-02-09T02:28:31.964Z,-4.25
2018-02-09T02:29:31.948Z,-4.17
2018-02-09T02:30:31.682Z,-4.18
2018-02-09T02:31:31.910Z,-4.24
2018-02-09T02:32:31.888Z,-4.15
2018-02-09T02:33:31.893Z,-4.15
2018-02-09T02:34:31.595Z,-4.21
2018-02-09T02:35:31.830Z,-4.24
2018-02-09T02:36:31.831Z,-4.2
2018-02-09T02:37:31.800Z,-4.29
2018-02-09T02:38:31.778Z,-4.3
2018-02-09T02:39:31.756Z,-4.29
2018-02-09T02:40:31.738Z,-4.25
2018-02-09T02:41:31.461Z,-4.28
2018-02-09T02:42:31.691Z,-4.3
2018-02-09T02:43:31.678Z,-4.25
2018-02-09T02:44:31.658Z,-4.24
2018-02-09T02:45:31.383Z,-4.3
2018-02-09T02:46:31.615Z,-4.3
2018-02-09T02:47:31.345Z,-4.3
2018-02-09T02:48:31.579Z,-4.28
2018-02-09T02:49:31.562Z,-4.3
2018-02-09T02:50:31.534Z,-4.32
2018-02-09T02:51:31.520Z,-4.25
2018-02-09T02:52:31.497Z,-4.29
2018-02-09T02:53:31.483Z,-4.28
2018-02-09T02:54:31.212Z,-4.28
2018-02-09T02:55:31.446Z,-4.33
2018-02-09T02:56:31.419Z,-4.29
2018-02-09T02:57:31.400Z,-4.33
2018-02-09T02:58:31.383Z,-4.38
2018-02-09T02:59:31.362Z,-4.38
2018-02-09T03:00:31.339Z,-4.36
2018-02-09T03:01:31.331Z,-4.39
2018-02-09T03:02:31.050Z,-4.42
2018-02-09T03:03:31.585Z,-4.4
2018-02-09T03:04:31.266Z,-4.38
2018-02-09T03:05:31.302Z,-4.38
2018-02-09T03:06:30.718Z,-4.42
2018-02-09T03:07:30.949Z,-4.42
2018-02-09T03:08:31.190Z,-4.4
2018-02-09T03:09:31.166Z,-4.35
2018-02-09T03:10:31.145Z,-4.39
2018-02-09T03:11:30.876Z,-4.39
2018-02-09T03:12:31.109Z,-4.33
2018-02-09T03:13:31.091Z,-4.35
2018-02-09T03:14:30.814Z,-4.38
2018-02-09T03:15:31.049Z,-4.38
2018-02-09T03:16:31.034Z,-4.42
2018-02-09T03:17:30.754Z,-4.33
2018-02-09T03:18:30.987Z,-4.32
2018-02-09T03:19:30.716Z,-4.49
2018-02-09T03:20:30.949Z,-4.35
2018-02-09T03:21:30.679Z,-4.46
2018-02-09T03:22:30.911Z,-4.46
2018-02-09T03:23:30.638Z,-4.43
2018-02-09T03:24:30.615Z,-4.43
2018-02-09T03:25:30.607Z,-4.51
2018-02-09T03:26:30.833Z,-4.47
2018-02-09T03:27:30.811Z,-4.5
2018-02-09T03:28:30.542Z,-4.51
2018-02-09T03:29:30.521Z,-4.43
2018-02-09T03:30:30.770Z,-4.43
2018-02-09T03:31:30.733Z,-4.46
2018-02-09T03:32:30.459Z,-4.47
2018-02-09T03:33:30.440Z,-4.42
2018-02-09T03:34:30.670Z,-4.5
2018-02-09T03:35:30.398Z,-4.43
2018-02-09T03:36:30.632Z,-4.5
2018-02-09T03:37:30.613Z,-4.46
2018-02-09T03:38:30.344Z,-4.43
2018-02-09T03:39:30.580Z,-4.42
2018-02-09T03:40:30.577Z,-4.51
2018-02-09T03:41:30.283Z,-4.53
2018-02-09T03:42:30.516Z,-4.43
2018-02-09T03:43:30.495Z,-4.49
2018-02-09T03:44:30.493Z,-4.58
2018-02-09T03:45:30.203Z,-4.58
2018-02-09T03:46:30.183Z,-4.5
2018-02-09T03:47:30.165Z,-4.58
2018-02-09T03:48:30.147Z,-4.5
2018-02-09T03:49:30.128Z,-4.46
2018-02-09T03:50:30.106Z,-4.47
2018-02-09T03:51:30.404Z,-4.49
2018-02-09T03:52:30.327Z,-4.43
2018-02-09T03:53:30.053Z,-4.46
2018-02-09T03:54:30.289Z,-4.46
2018-02-09T03:55:30.015Z,-4.53
2018-02-09T03:56:30.248Z,-4.46
2018-02-09T03:57:29.973Z,-4.47
2018-02-09T03:58:30.213Z,-4.5
2018-02-09T03:59:30.179Z,-4.49
2018-02-09T04:00:29.910Z,-4.43
2018-02-09T04:01:29.889Z,-4.42
2018-02-09T04:02:29.868Z,-4.4
2018-02-09T04:03:30.103Z,-4.5
2018-02-09T04:04:29.830Z,-4.49
2018-02-09T04:05:30.315Z,-4.49
2018-02-09T04:06:29.794Z,-4.46
2018-02-09T04:07:29.517Z,-4.47
2018-02-09T04:08:30.008Z,-4.4
2018-02-09T04:09:29.985Z,-4.42
2018-02-09T04:10:29.972Z,-4.47
2018-02-09T04:12:29.675Z,-4.3
2018-02-09T04:13:29.905Z,-4.28
2018-02-09T04:14:29.380Z,-4.3
2018-02-09T04:15:29.613Z,-4.29
2018-02-09T04:16:29.595Z,-4.17
2018-02-09T04:17:29.837Z,-4.22
2018-02-09T04:18:29.553Z,-4.2
2018-02-09T04:19:29.540Z,-4.15
2018-02-09T04:20:29.516Z,-4.15
2018-02-09T04:21:29.242Z,-4.01
2018-02-09T04:22:29.480Z,-3.99
2018-02-09T04:23:29.713Z,-3.97
2018-02-09T04:24:29.436Z,-3.83
2018-02-09T04:25:29.672Z,-3.79
2018-02-09T04:26:29.649Z,-3.9
2018-02-09T04:27:29.633Z,-3.79
2018-02-09T04:28:29.611Z,-3.67
2018-02-09T04:29:29.593Z,-3.56
2018-02-09T04:30:29.579Z,-3.53
2018-02-09T04:31:29.052Z,-3.59
2018-02-09T04:32:29.287Z,-3.62
2018-02-09T04:33:29.265Z,-3.56
2018-02-09T04:34:29.248Z,-3.49
2018-02-09T04:35:29.228Z,-3.52
2018-02-09T04:36:29.465Z,-3.31
2018-02-09T04:37:29.184Z,-3.38
2018-02-09T04:38:29.421Z,-3.3
2018-02-09T04:39:29.146Z,-3.24
2018-02-09T04:40:29.385Z,-3.24
2018-02-09T04:41:29.361Z,-3.18
2018-02-09T04:42:29.348Z,-3.02
2018-02-09T04:43:29.326Z,-3.07
2018-02-09T04:44:29.309Z,-3.03
2018-02-09T04:45:29.032Z,-3.02
2018-02-09T04:46:28.763Z,-2.94
2018-02-09T04:47:29.254Z,-2.91
2018-02-09T04:48:28.723Z,-2.92
2018-02-09T04:49:28.958Z,-2.74
2018-02-09T04:50:29.205Z,-2.73
2018-02-09T04:51:29.168Z,-2.7
2018-02-09T04:52:28.904Z,-2.61
2018-02-09T04:53:28.881Z,-2.56
2018-02-09T04:54:29.117Z,-2.52
2018-02-09T04:55:29.096Z,-2.5
2018-02-09T04:56:29.079Z,-2.46
2018-02-09T04:57:28.552Z,-2.42
2018-02-09T04:58:28.787Z,-2.34
2018-02-09T04:59:29.031Z,-2.23
2018-02-09T05:00:29.000Z,-2.23
2018-02-09T05:01:28.728Z,-2.2
2018-02-09T05:02:28.714Z,-2.09
2018-02-09T05:03:28.947Z,-2.1
2018-02-09T05:04:28.972Z,-2.02
2018-02-09T05:05:28.401Z,-1.85
2018-02-09T05:06:28.636Z,-1.84
2018-02-09T05:07:28.873Z,-1.8
2018-02-09T05:08:28.349Z,-1.67
2018-02-09T05:09:28.832Z,-1.67
2018-02-09T05:10:28.821Z,-1.61
2018-02-09T05:11:28.800Z,-1.64
2018-02-09T05:12:28.529Z,-1.51
2018-02-09T05:13:28.769Z,-1.46
2018-02-09T05:14:28.752Z,-1.48
2018-02-09T05:15:28.474Z,-1.41
2018-02-09T05:16:28.454Z,-1.28
2018-02-09T05:17:28.690Z,-1.33
2018-02-09T05:18:28.416Z,-1.2
2018-02-09T05:19:28.400Z,-1.23
2018-02-09T05:20:28.639Z,-1.22
2018-02-09T05:21:28.627Z,-1.16
2018-02-09T05:22:28.346Z,-1.1
2018-02-09T05:23:28.579Z,-1.12
2018-02-09T05:24:28.310Z,-0.97
2018-02-09T05:25:28.295Z,-1.02
2018-02-09T05:26:28.528Z,-0.99
2018-02-09T05:27:28.259Z,-0.99
2018-02-09T05:28:28.536Z,-0.83
2018-02-09T05:29:28.217Z,-0.86
2018-02-09T05:30:28.451Z,-0.82
2018-02-09T05:31:28.186Z,-0.78
2018-02-09T05:32:28.422Z,-0.78
2018-02-09T05:33:28.150Z,-0.75
2018-02-09T05:34:28.130Z,-0.65
2018-02-09T05:35:28.367Z,-0.7
2018-02-09T05:36:28.093Z,-0.62
2018-02-09T05:37:28.332Z,-0.61
2018-02-09T05:38:28.321Z,-0.67
2018-02-09T05:39:28.293Z,-0.54
2018-02-09T05:40:28.280Z,-0.57
2018-02-09T05:41:28.009Z,-0.51
2018-02-09T05:42:28.240Z,-0.55
2018-02-09T05:43:27.972Z,-0.51
2018-02-09T05:44:27.953Z,-0.39
2018-02-09T05:45:27.934Z,-0.37
2018-02-09T05:46:27.979Z,-0.4
2018-02-09T05:47:27.902Z,-0.33
2018-02-09T05:48:28.138Z,-0.26
2018-02-09T05:49:27.616Z,-0.25
2018-02-09T05:50:27.850Z,-0.37
2018-02-09T05:51:27.830Z,-0.29
2018-02-09T05:52:28.070Z,-0.31
2018-02-09T05:53:27.797Z,-0.23
2018-02-09T05:54:28.030Z,-0.23
2018-02-09T05:55:28.014Z,-0.18
2018-02-09T05:56:27.993Z,-0.18
2018-02-09T05:57:27.980Z,-0.16
2018-02-09T05:58:27.958Z,-0.1
2018-02-09T05:59:27.944Z,-0.14
2018-02-09T06:00:27.936Z,-0.01
2018-02-09T06:01:27.657Z,-0.03
2018-02-09T06:02:27.895Z,-0.04
2018-02-09T06:03:27.620Z,-0.05
2018-02-09T06:04:27.606Z,-0.01
2018-02-09T06:05:27.843Z,-0.03
2018-02-09T06:06:27.828Z,0
2018-02-09T06:07:27.302Z,-0.03
2018-02-09T06:08:27.570Z,0
2018-02-09T06:09:27.270Z,-0.08
2018-02-09T06:10:28.011Z,-0.04
2018-02-09T06:11:27.738Z,-0.04
2018-02-09T06:12:27.480Z,0.1
2018-02-09T06:13:27.703Z,0.08
2018-02-09T06:14:27.436Z,0.2
2018-02-09T06:15:27.416Z,0.23
2018-02-09T06:16:27.655Z,0.24
2018-02-09T06:17:27.382Z,0.31
2018-02-09T06:18:27.369Z,0.31
2018-02-09T06:19:27.350Z,0.39
2018-02-09T06:20:27.333Z,0.33
2018-02-09T06:21:27.060Z,0.29
2018-02-09T06:22:27.548Z,0.26
2018-02-09T06:23:27.535Z,0.29
2018-02-09T06:24:27.520Z,0.26
2018-02-09T06:25:27.508Z,0.28
2018-02-09T06:26:27.477Z,0.28
2018-02-09T06:27:27.469Z,0.26
2018-02-09T06:28:26.944Z,0.26
2018-02-09T06:29:27.175Z,0.28
2018-02-09T06:30:27.162Z,0.35
2018-02-09T06:31:27.395Z,0.31
2018-02-09T06:32:27.377Z,0.23
2018-02-09T06:33:26.854Z,0.26
2018-02-09T06:34:27.094Z,0.21
2018-02-09T06:35:27.336Z,0.18
2018-02-09T06:36:27.056Z,0.21
2018-02-09T06:37:27.296Z,0.26
2018-02-09T06:38:27.276Z,0.26
2018-02-09T06:39:27.260Z,0.32
2018-02-09T06:40:27.240Z,0.33
2018-02-09T06:41:27.477Z,0.35
2018-02-09T06:42:26.961Z,0.38
2018-02-09T06:43:27.194Z,0.35
2018-02-09T06:44:26.930Z,0.46
2018-02-09T06:45:27.157Z,0.46
2018-02-09T06:46:27.149Z,0.47
2018-02-09T06:47:27.201Z,0.47
2018-02-09T06:48:26.855Z,0.53
2018-02-09T06:49:26.834Z,0.46
2018-02-09T06:50:27.075Z,0.46
2018-02-09T06:51:26.805Z,0.41
2018-02-09T06:52:26.788Z,0.35
2018-02-09T06:53:26.776Z,0.32
2018-02-09T06:54:27.038Z,0.29
2018-02-09T06:55:26.989Z,0.39
2018-02-09T06:56:26.719Z,0.29
2018-02-09T06:57:26.958Z,0.35
2018-02-09T06:58:26.684Z,0.35
2018-02-09T06:59:26.668Z,0.38
2018-02-09T07:00:26.903Z,0.38
2018-02-09T07:01:26.891Z,0.41
2018-02-09T07:02:26.615Z,0.41
2018-02-09T07:03:26.853Z,0.46
2018-02-09T07:04:26.583Z,0.65
2018-02-09T07:05:26.820Z,0.66
2018-02-09T07:06:26.551Z,0.65
2018-02-09T07:07:26.784Z,0.66
2018-02-09T07:08:26.769Z,0.75
2018-02-09T07:09:26.753Z,0.83
2018-02-09T07:10:26.481Z,0.79
2018-02-09T07:11:41.378Z,0.86
2018-02-09T07:12:26.700Z,0.9
2018-02-09T07:13:26.686Z,0.91
2018-02-09T07:14:26.415Z,0.88
2018-02-09T07:15:26.455Z,0.86
2018-02-09T07:16:26.637Z,0.93
2018-02-09T07:17:26.367Z,0.79
2018-02-09T07:18:26.628Z,0.84
2018-02-09T07:19:26.587Z,0.84
2018-02-09T07:20:26.312Z,0.86
2018-02-09T07:21:26.300Z,0.88
2018-02-09T07:22:26.543Z,0.93
2018-02-09T07:23:26.515Z,0.98
2018-02-09T07:24:26.496Z,1.02
2018-02-09T07:25:26.232Z,1.15
2018-02-09T07:26:26.220Z,1.16
2018-02-09T07:27:26.198Z,1.12
2018-02-09T07:28:26.430Z,1.22
2018-02-09T07:29:26.421Z,1.23
2018-02-09T07:30:26.150Z,1.26
2018-02-09T07:31:26.135Z,1.41
2018-02-09T07:32:26.115Z,1.32
2018-02-09T07:33:26.354Z,1.42
2018-02-09T07:34:26.088Z,1.4
2018-02-09T07:35:26.336Z,1.42
2018-02-09T07:36:26.301Z,1.51
2018-02-09T07:37:26.290Z,1.41
2018-02-09T07:38:26.275Z,1.44
2018-02-09T07:39:26.000Z,1.42
2018-02-09T07:40:26.239Z,1.44
2018-02-09T07:41:26.230Z,1.42
2018-02-09T07:42:25.962Z,1.51
2018-02-09T07:43:25.937Z,1.54
2018-02-09T07:44:26.173Z,1.44
2018-02-09T07:45:26.214Z,1.58
2018-02-09T07:46:26.154Z,1.6
2018-02-09T07:47:25.877Z,1.65
2018-02-09T07:48:26.113Z,1.66
2018-02-09T07:49:25.847Z,1.62
2018-02-09T07:50:25.827Z,1.7
2018-02-09T07:51:26.065Z,1.7
2018-02-09T07:52:25.792Z,1.72
2018-02-09T07:53:25.777Z,1.72
2018-02-09T07:54:25.759Z,1.79
2018-02-09T07:55:25.996Z,1.83
2018-02-09T07:56:25.983Z,1.93
2018-02-09T07:57:25.971Z,1.9
2018-02-09T07:58:25.708Z,1.95
2018-02-09T07:59:25.938Z,2.03
2018-02-09T08:00:25.667Z,2.09
2018-02-09T08:01:25.902Z,2.1
2018-02-09T08:02:25.636Z,2.14
2018-02-09T08:03:25.653Z,2.1
2018-02-09T08:04:25.603Z,2.1
2018-02-09T08:05:25.589Z,2.12
2018-02-09T08:06:25.826Z,2
2018-02-09T08:07:25.557Z,2.07
2018-02-09T08:08:25.542Z,2.05
2018-02-09T08:09:25.778Z,2.05
2018-02-09T08:10:25.767Z,2.06
2018-02-09T08:11:25.751Z,2.12
2018-02-09T08:12:25.748Z,2.17
2018-02-09T08:13:25.213Z,2.25
2018-02-09T08:14:25.699Z,2.21
2018-02-09T08:15:25.723Z,2.18
2018-02-09T08:16:25.167Z,2.28
2018-02-09T08:17:25.663Z,2.35
2018-02-09T08:18:25.661Z,2.3
2018-02-09T08:19:25.628Z,2.28
2018-02-09T08:20:25.618Z,2.45
2018-02-09T08:21:25.594Z,2.35
2018-02-09T08:22:25.638Z,2.35
2018-02-09T08:23:25.581Z,2.53
2018-02-09T08:24:25.646Z,2.49
2018-02-09T08:25:25.284Z,2.63
2018-02-09T08:26:25.265Z,2.59
2018-02-09T08:27:25.252Z,2.59
2018-02-09T08:28:25.515Z,2.59
2018-02-09T08:29:25.473Z,2.59
2018-02-09T08:30:25.462Z,2.54
2018-02-09T08:31:25.195Z,2.61
2018-02-09T08:32:25.178Z,2.49
2018-02-09T08:33:25.429Z,2.52
2018-02-09T08:34:25.402Z,2.49
2018-02-09T08:35:24.885Z,2.57
2018-02-09T08:36:25.377Z,2.52
2018-02-09T08:37:25.373Z,2.49
2018-02-09T08:38:25.088Z,2.52
2018-02-09T08:39:25.326Z,2.48
2018-02-09T08:40:25.062Z,2.52
2018-02-09T08:41:25.296Z,2.54
2018-02-09T08:42:25.299Z,2.59
2018-02-09T08:43:25.271Z,2.53
2018-02-09T08:44:24.752Z,2.64
2018-02-09T08:45:24.989Z,2.49
2018-02-09T08:46:25.231Z,2.56
2018-02-09T08:47:24.968Z,2.49
2018-02-09T08:48:25.214Z,2.39
2018-02-09T08:49:25.195Z,2.36
2018-02-09T08:50:25.168Z,2.39
2018-02-09T08:51:25.174Z,2.41
2018-02-09T08:52:24.889Z,2.39
2018-02-09T08:53:25.141Z,2.41
2018-02-09T08:54:25.111Z,2.36
2018-02-09T08:55:25.095Z,2.41
2018-02-09T08:56:24.831Z,2.45
2018-02-09T08:57:25.062Z,2.31
2018-02-09T08:58:25.064Z,2.42
2018-02-09T08:59:24.822Z,2.45
2018-02-09T09:00:25.028Z,2.36
2018-02-09T09:01:24.797Z,2.36
2018-02-09T09:02:24.992Z,2.38
2018-02-09T09:03:24.720Z,2.38
2018-02-09T09:04:24.967Z,2.49
2018-02-09T09:05:24.951Z,2.56
2018-02-09T09:06:24.945Z,2.56
2018-02-09T09:07:24.724Z,2.54
2018-02-09T09:08:24.904Z,2.54
2018-02-09T09:09:24.637Z,2.49
2018-02-09T09:10:24.899Z,2.64
2018-02-09T09:11:24.861Z,2.56
2018-02-09T09:12:24.843Z,2.43
2018-02-09T09:13:24.834Z,2.48
2018-02-09T09:14:24.569Z,2.52
2018-02-09T09:15:24.300Z,2.52
2018-02-09T09:16:24.788Z,2.53
2018-02-09T09:17:24.777Z,2.36
2018-02-09T09:18:24.508Z,2.52
2018-02-09T09:19:24.803Z,2.36
2018-02-09T09:20:24.731Z,2.49
2018-02-09T09:21:24.754Z,2.41
2018-02-09T09:22:24.447Z,2.39
2018-02-09T09:23:24.688Z,2.45
2018-02-09T09:24:24.432Z,2.35
2018-02-09T09:25:24.415Z,2.41
2018-02-09T09:26:24.644Z,2.48
2018-02-09T09:27:24.639Z,2.36
2018-02-09T09:28:24.638Z,2.38
2018-02-09T09:29:24.372Z,2.48
2018-02-09T09:30:24.332Z,2.36
2018-02-09T09:31:24.571Z,2.36
2018-02-09T09:32:24.575Z,2.41
2018-02-09T09:33:24.286Z,2.36
2018-02-09T09:34:24.594Z,2.36
2018-02-09T09:35:24.508Z,2.43
2018-02-09T09:36:24.494Z,2.41
2018-02-09T09:37:24.480Z,2.41
2018-02-09T09:38:24.475Z,2.41
2018-02-09T09:39:24.236Z,2.41
2018-02-09T09:40:24.440Z,2.53
2018-02-09T09:41:24.170Z,2.45
2018-02-09T09:42:24.418Z,2.48
2018-02-09T09:43:24.145Z,2.46
2018-02-09T09:44:24.133Z,2.42
2018-02-09T09:45:24.375Z,2.52
2018-02-09T09:46:24.401Z,2.52
2018-02-09T09:47:24.097Z,2.53
2018-02-09T09:48:24.324Z,2.53
2018-02-09T09:49:24.056Z,2.63
2018-02-09T09:50:24.300Z,2.56
2018-02-09T09:51:24.282Z,2.56
2018-02-09T09:52:24.262Z,2.54
2018-02-09T09:53:24.255Z,2.57
2018-02-09T09:54:24.230Z,2.59
2018-02-09T09:55:24.222Z,2.59
2018-02-09T09:56:24.207Z,2.59
2018-02-09T09:57:24.198Z,2.53
2018-02-09T09:58:38.836Z,2.56
2018-02-09T09:59:23.904Z,2.57
2018-02-09T10:00:24.146Z,2.54
2018-02-09T10:01:23.888Z,2.57
2018-02-09T10:02:23.608Z,2.59
2018-02-09T10:03:23.852Z,2.6
2018-02-09T10:04:24.335Z,2.54
2018-02-09T10:05:23.815Z,2.64
2018-02-09T10:06:24.059Z,2.64
2018-02-09T10:07:24.052Z,2.63
2018-02-09T10:08:24.239Z,2.66
2018-02-09T10:09:24.013Z,2.67
2018-02-09T10:10:23.994Z,2.72
2018-02-09T10:11:23.986Z,2.71
2018-02-09T10:12:23.967Z,2.69
2018-02-09T10:13:24.005Z,2.77
2018-02-09T10:14:23.939Z,2.69
2018-02-09T10:15:23.675Z,2.71
2018-02-09T10:16:23.920Z,2.69
2018-02-09T10:17:23.897Z,2.63
2018-02-09T10:18:23.893Z,2.85
2018-02-09T10:19:23.864Z,2.79
2018-02-09T10:20:23.863Z,2.81
2018-02-09T10:21:23.582Z,2.85
2018-02-09T10:22:23.887Z,2.81
2018-02-09T10:23:23.813Z,2.84
2018-02-09T10:24:23.791Z,2.78
2018-02-09T10:25:23.536Z,2.82
2018-02-09T10:26:23.508Z,2.89
2018-02-09T10:27:23.752Z,2.89
2018-02-09T10:28:38.144Z,2.93
2018-02-09T10:29:23.476Z,2.96
2018-02-09T10:30:23.701Z,2.97
2018-02-09T10:31:23.434Z,2.95
2018-02-09T10:32:23.425Z,3.06
2018-02-09T10:33:23.661Z,3.03
2018-02-09T10:34:23.650Z,3.08
2018-02-09T10:35:23.634Z,3.13
2018-02-09T10:36:23.367Z,3.08
2018-02-09T10:37:23.620Z,3.06
2018-02-09T10:38:23.333Z,3.06
2018-02-09T10:39:23.577Z,3.13
2018-02-09T10:40:23.560Z,3.03
2018-02-09T10:41:23.545Z,3.06
2018-02-09T10:42:23.534Z,3.06
2018-02-09T10:43:23.283Z,3.14
2018-02-09T10:44:23.513Z,3.15
2018-02-09T10:45:23.235Z,3.17
2018-02-09T10:46:23.481Z,3.26
2018-02-09T10:47:23.462Z,3.33
2018-02-09T10:48:23.206Z,3.4
2018-02-09T10:49:23.188Z,3.51
2018-02-09T10:50:23.420Z,3.73
2018-02-09T10:51:23.422Z,3.86
2018-02-09T10:52:23.135Z,4.08
2018-02-09T10:53:23.374Z,4.16
2018-02-09T10:54:23.372Z,4.27
2018-02-09T10:55:23.362Z,4.47
2018-02-09T10:56:23.083Z,4.59
2018-02-09T10:57:23.326Z,4.78
2018-02-09T10:58:23.367Z,4.86
2018-02-09T10:59:23.294Z,4.97
2018-02-09T11:00:37.944Z,5.13
2018-02-09T11:01:23.318Z,5.12
2018-02-09T11:02:22.757Z,5.31
2018-02-09T11:03:23.254Z,5.35
2018-02-09T11:04:23.251Z,5.46
2018-02-09T11:05:23.218Z,5.57
2018-02-09T11:06:22.952Z,5.72
2018-02-09T11:07:22.940Z,5.89
2018-02-09T11:08:23.202Z,5.89
2018-02-09T11:09:23.188Z,5.85
2018-02-09T11:10:22.904Z,5.86
2018-02-09T11:11:23.138Z,5.9
2018-02-09T11:12:23.130Z,5.9
2018-02-09T11:13:23.127Z,5.94
2018-02-09T11:14:23.120Z,5.94
2018-02-09T11:15:22.588Z,6
2018-02-09T11:16:23.079Z,6.12
2018-02-09T11:17:22.861Z,6.3
2018-02-09T11:18:22.809Z,6.48
2018-02-09T11:19:22.793Z,6.52
2018-02-09T11:20:22.785Z,6.52
2018-02-09T11:21:22.769Z,6.49
2018-02-09T11:22:22.756Z,6.55
2018-02-09T11:23:23.002Z,6.55
2018-02-09T11:24:22.991Z,6.71
2018-02-09T11:25:22.721Z,6.64
2018-02-09T11:26:22.973Z,6.7
2018-02-09T11:27:22.707Z,6.79
2018-02-09T11:28:22.951Z,6.71
2018-02-09T11:29:22.426Z,6.69
2018-02-09T11:30:22.666Z,6.74
2018-02-09T11:31:22.911Z,6.73
2018-02-09T11:32:22.896Z,6.73
2018-02-09T11:33:22.634Z,6.8
2018-02-09T11:34:22.622Z,6.77
2018-02-09T11:35:22.867Z,6.81
2018-02-09T11:36:22.849Z,6.85
2018-02-09T11:37:22.838Z,6.84
2018-02-09T11:38:22.834Z,6.81
2018-02-09T11:39:22.833Z,6.84
2018-02-09T11:40:22.808Z,6.84
2018-02-09T11:41:22.550Z,6.81
2018-02-09T11:42:22.788Z,6.91
2018-02-09T11:43:22.776Z,6.89
2018-02-09T11:44:22.524Z,6.88
2018-02-09T11:45:22.756Z,6.92
2018-02-09T11:46:22.743Z,6.92
2018-02-09T11:47:22.732Z,7.02
2018-02-09T11:48:22.461Z,7.09
2018-02-09T11:49:22.705Z,7.12
2018-02-09T11:50:22.460Z,6.98
2018-02-09T11:51:22.687Z,6.98
2018-02-09T11:52:22.685Z,6.98
2018-02-09T11:53:22.670Z,6.85
2018-02-09T11:54:22.649Z,6.69
2018-02-09T11:55:22.758Z,6.7
2018-02-09T11:56:22.636Z,6.58
2018-02-09T11:57:22.632Z,6.52
2018-02-09T11:58:22.608Z,6.51
2018-02-09T11:59:22.605Z,6.44
2018-02-09T12:00:22.585Z,6.49
2018-02-09T12:01:22.572Z,6.55
2018-02-09T12:02:22.307Z,6.48
2018-02-09T12:03:22.564Z,6.43
2018-02-09T12:04:22.540Z,6.41
2018-02-09T12:05:22.526Z,6.41
2018-02-09T12:06:22.524Z,6.38
2018-02-09T12:07:22.517Z,6.36
2018-02-09T12:08:22.262Z,6.33
2018-02-09T12:09:22.515Z,6.3
2018-02-09T12:10:22.471Z,6.14
2018-02-09T12:11:22.201Z,6.09
2018-02-09T12:12:22.446Z,6.09
2018-02-09T12:13:22.442Z,6.06
2018-02-09T12:14:22.422Z,6.04
2018-02-09T12:15:22.411Z,6.09
2018-02-09T12:16:22.409Z,6.04
2018-02-09T12:17:22.386Z,6.11
2018-02-09T12:18:22.377Z,6.08
2018-02-09T12:19:22.359Z,6.08
2018-02-09T12:20:22.354Z,6.04
2018-02-09T12:21:22.082Z,6.06
2018-02-09T12:22:22.331Z,6.04
2018-02-09T12:23:22.317Z,6.06
2018-02-09T12:24:22.048Z,6.01
2018-02-09T12:25:22.039Z,6.06
2018-02-09T12:26:51.608Z,6.14
2018-02-09T12:27:21.759Z,6.15
2018-02-09T12:28:22.262Z,6.08
2018-02-09T12:29:22.253Z,6.14
2018-02-09T12:30:21.979Z,6.11
2018-02-09T12:31:22.216Z,6.09
2018-02-09T12:32:22.216Z,6.01
2018-02-09T12:33:22.196Z,6.01
2018-02-09T12:34:22.183Z,5.9
2018-02-09T12:35:22.170Z,5.85
2018-02-09T12:36:21.928Z,5.81
2018-02-09T12:37:22.154Z,5.78
2018-02-09T12:38:22.138Z,5.64
2018-02-09T12:39:22.125Z,5.72
2018-02-09T12:40:22.115Z,5.72
2018-02-09T12:41:22.097Z,5.78
2018-02-09T12:42:22.088Z,5.85
2018-02-09T12:43:36.768Z,5.89
2018-02-09T12:44:21.825Z,5.93
2018-02-09T12:45:22.051Z,5.97
2018-02-09T12:46:21.783Z,5.94
2018-02-09T12:47:21.773Z,6
2018-02-09T12:48:22.021Z,5.99
2018-02-09T12:49:22.005Z,5.99
2018-02-09T12:50:21.997Z,5.85
2018-02-09T12:51:21.723Z,5.94
2018-02-09T12:52:21.969Z,5.83
2018-02-09T12:53:21.699Z,5.86
2018-02-09T12:54:21.943Z,5.85
2018-02-09T12:55:21.942Z,5.78
2018-02-09T12:56:21.929Z,5.78
2018-02-09T12:57:21.909Z,5.79
2018-02-09T12:58:21.894Z,5.74
2018-02-09T12:59:21.902Z,5.65
2018-02-09T13:00:21.867Z,5.57
2018-02-09T13:01:21.854Z,5.56
2018-02-09T13:02:21.846Z,5.58
2018-02-09T13:03:21.855Z,5.64
2018-02-09T13:04:21.821Z,5.56
2018-02-09T13:05:21.804Z,5.57
2018-02-09T13:06:21.797Z,5.57
2018-02-09T13:07:21.786Z,5.56
2018-02-09T13:08:21.975Z,5.58
2018-02-09T13:09:21.786Z,5.48
2018-02-09T13:10:21.750Z,5.46